Time;durP1;ratioP1;P1;durP2;ratioP2;P2;SDS_P1;SDS_P2;PMS_P1;PMS_P2;Temp;Humidity;BMP_temperature;BMP_pressure;BME280_temperature;BME280_humidity;BME280_pressure;Samples;Min_cycle;Max_cycle;Signal;HPM_P1;HPM_P2
2021/05/28 00:02:48;;;;;;;6.65;5.08;;;;;;;7.73;70.40;100460.28;2166189;80;28405;-58
2021/05/28 00:05:50;;;;;;;4.72;4.22;;;;;;;7.68;70.36;100460.45;2154177;82;31406;-58
2021/05/28 00:08:51;;;;;;;8.30;5.15;;;;;;;7.65;70.42;100465.88;2184662;81;32968;-59
2021/05/28 00:11:54;;;;;;;5.47;4.55;;;;;;;7.62;70.59;100470.46;2186647;81;29353;-58
2021/05/28 00:14:56;;;;;;;6.22;4.80;;;;;;;7.59;70.55;100464.31;2179448;81;27608;-58
2021/05/28 00:17:57;;;;;;;7.28;4.37;;;;;;;7.57;70.55;100471.48;2186929;81;30046;-58
2021/05/28 00:20:59;;;;;;;5.50;4.00;;;;;;;7.55;70.63;100471.14;2189410;81;31607;-58
2021/05/28 00:24:02;;;;;;;8.85;4.87;;;;;;;7.54;70.74;100466.73;2168311;81;32687;-58
2021/05/28 00:27:05;;;;;;;6.62;4.45;;;;;;;7.53;70.81;100471.17;2192250;81;29717;-58
2021/05/28 00:30:08;;;;;;;5.55;4.30;;;;;;;7.53;70.99;100472.98;2191620;81;27549;-58
2021/05/28 00:33:10;;;;;;;7.60;4.58;;;;;;;7.53;70.98;100475.17;2178513;81;29416;-58
2021/05/28 00:36:12;;;;;;;6.03;4.30;;;;;;;7.52;71.03;100469.46;2154209;82;31443;-58
2021/05/28 00:39:15;;;;;;;6.15;4.72;;;;;;;7.53;71.16;100473.84;2154270;82;32969;-58
2021/05/28 00:42:16;;;;;;;8.43;4.92;;;;;;;7.53;71.19;100471.65;2168020;81;28586;-57
2021/05/28 00:45:18;;;;;;;4.78;4.03;;;;;;;7.53;71.21;100474.31;2154642;81;27638;-58
2021/05/28 00:48:22;;;;;;;5.50;4.55;;;;;;;7.53;71.40;100471.65;2177296;81;28637;-57
2021/05/28 00:51:24;;;;;;;6.80;4.45;;;;;;;7.50;71.35;100474.41;2191181;81;31381;-57
2021/05/28 00:54:26;;;;;;;4.95;4.15;;;;;;;7.48;71.38;100474.48;2164813;81;33668;-57
2021/05/28 00:57:29;;;;;;;4.72;3.90;;;;;;;7.49;71.43;100472.67;2157492;81;30541;-57
2021/05/28 01:00:32;;;;;;;8.70;4.85;;;;;;;7.47;71.37;100475.40;2176935;81;27686;-58
2021/05/28 01:03:34;;;;;;;13.25;4.95;;;;;;;7.46;71.49;100476.32;2171512;81;29438;-62
2021/05/28 01:06:36;;;;;;;8.93;4.35;;;;;;;7.44;71.46;100472.83;2188925;81;32101;-58
2021/05/28 01:09:38;;;;;;;6.85;4.25;;;;;;;7.42;71.52;100478.23;2191412;81;33319;-58
2021/05/28 01:12:41;;;;;;;5.85;4.20;;;;;;;7.40;71.52;100475.19;2178283;81;29879;-57
2021/05/28 01:15:43;;;;;;;10.80;5.80;;;;;;;7.39;71.49;100474.77;2172712;81;27697;-57
2021/05/28 01:18:46;;;;;;;7.87;5.37;;;;;;;7.36;71.44;100478.42;2162545;81;28677;-57
2021/05/28 01:21:48;;;;;;;6.67;5.72;;;;;;;7.35;71.51;100477.16;2154092;81;31013;-57
2021/05/28 01:24:50;;;;;;;7.03;5.58;;;;;;;7.32;71.43;100471.92;2185574;81;33325;-57
2021/05/28 01:27:52;;;;;;;11.25;6.47;;;;;;;7.31;71.44;100471.03;2183218;81;29728;-57
2021/05/28 01:30:55;;;;;;;8.98;6.62;;;;;;;7.29;71.50;100471.54;2176700;81;27650;-57
2021/05/28 01:33:56;;;;;;;9.35;5.80;;;;;;;7.27;71.60;100471.61;2169417;81;28996;-58
2021/05/28 01:36:58;;;;;;;8.48;5.75;;;;;;;7.25;71.55;100476.59;2154684;81;31669;-57
2021/05/28 01:40:00;;;;;;;7.10;5.40;;;;;;;7.21;71.58;100482.45;2165735;81;32819;-57
2021/05/28 01:43:02;;;;;;;8.45;5.50;;;;;;;7.19;71.68;100480.77;2228044;79;30058;-57
2021/05/28 01:46:05;;;;;;;8.85;6.28;;;;;;;7.14;71.70;100475.13;2192200;81;27668;-57
2021/05/28 01:49:06;;;;;;;9.50;6.72;;;;;;;7.12;71.63;100482.77;2224930;79;29021;-57
2021/05/28 01:52:09;;;;;;;10.85;6.65;;;;;;;7.09;71.57;100482.86;2181859;81;31080;-58
2021/05/28 01:55:14;;;;;;;11.00;7.85;;;;;;;7.07;71.63;100480.70;2190478;81;33034;-57
2021/05/28 01:58:20;;;;;;;12.23;7.22;;;;;;;7.05;71.90;100495.86;2179568;81;30054;-57
2021/05/28 02:01:22;;;;;;;10.58;7.65;;;;;;;6.99;71.76;100492.49;2170222;80;27603;-61
2021/05/28 02:04:24;;;;;;;8.25;6.17;;;;;;;6.96;71.81;100493.91;2198527;80;29446;-58
2021/05/28 02:07:26;;;;;;;9.90;7.42;;;;;;;6.94;71.84;100494.42;2185831;80;32329;-58
2021/05/28 02:10:29;;;;;;;9.10;7.17;;;;;;;6.90;71.90;100492.77;2192031;80;34110;-57
2021/05/28 02:13:31;;;;;;;10.25;6.30;;;;;;;6.88;71.93;100498.59;2191660;80;30262;-58
2021/05/28 02:16:34;;;;;;;9.50;6.97;;;;;;;6.86;71.96;100492.47;2168329;80;27575;-58
2021/05/28 02:19:35;;;;;;;9.88;6.92;;;;;;;6.86;72.03;100499.13;2159843;82;28944;-58
2021/05/28 02:22:40;;;;;;;9.83;7.60;;;;;;;6.87;72.15;100500.84;2146427;80;31396;-58
2021/05/28 02:29:12;;;;;;;11.33;7.42;;;;;;;6.87;72.49;100486.20;2112884;83;28136;-58
2021/05/28 02:32:14;;;;;;;12.13;7.42;;;;;;;6.99;72.54;100500.92;2085057;85;27660;-59
2021/05/28 02:35:16;;;;;;;12.58;7.40;;;;;;;7.05;72.65;100501.19;2113029;83;29033;-59
2021/05/28 02:38:17;;;;;;;13.65;7.80;;;;;;;7.07;72.64;100500.68;2103594;83;32199;-59
2021/05/28 02:41:19;;;;;;;13.83;8.20;;;;;;;7.12;72.76;100514.73;2120518;83;33007;-59
2021/05/28 02:44:21;;;;;;;12.95;8.10;;;;;;;7.15;72.91;100506.17;2108105;83;30457;-59
2021/05/28 02:47:23;;;;;;;9.88;7.47;;;;;;;7.22;73.07;100516.17;2095359;83;27612;-59
2021/05/28 02:50:32;;;;;;;10.90;7.22;;;;;;;7.29;73.25;100515.06;2117001;83;28917;-59
2021/05/28 02:53:34;;;;;;;10.55;7.42;;;;;;;7.37;73.49;100510.81;2118627;83;31008;-59
2021/05/28 02:56:33;;;;;;;12.10;7.62;;;;;;;7.45;73.40;100514.08;2118859;83;32967;-59
2021/05/28 02:59:36;;;;;;;9.95;7.22;;;;;;;7.55;73.74;100519.13;2092842;83;30521;-59
2021/05/28 03:02:37;;;;;;;11.97;8.10;;;;;;;7.65;73.84;100520.55;2084971;85;28179;-58
2021/05/28 03:05:42;;;;;;;9.35;7.37;;;;;;;7.77;73.93;100520.59;2085049;85;29893;-59
2021/05/28 03:08:44;;;;;;;9.88;7.67;;;;;;;7.87;73.95;100519.34;2096462;83;31397;-59
2021/05/28 03:11:46;;;;;;;9.53;7.42;;;;;;;7.99;74.06;100518.05;2119069;83;32937;-59
2021/05/28 03:14:48;;;;;;;10.78;7.92;;;;;;;8.10;73.90;100519.00;2098963;83;30472;-59
2021/05/28 03:17:50;;;;;;;11.55;7.12;;;;;;;8.20;73.98;100520.88;2097165;83;27599;-59
2021/05/28 03:21:18;;;;;;;10.03;8.40;;;;;;;8.28;74.07;100520.12;2090661;83;29026;-59
2021/05/28 03:24:03;;;;;;;10.93;8.33;;;;;;;8.39;74.09;100530.41;2116329;83;31133;-59
2021/05/28 03:27:05;;;;;;;10.25;7.50;;;;;;;8.50;74.18;100523.38;2092107;83;34615;-59
2021/05/28 03:30:11;;;;;;;13.22;8.23;;;;;;;8.61;74.29;100536.33;2085678;83;30541;-59
2021/05/28 03:33:12;;;;;;;13.05;7.80;;;;;;;8.71;74.19;100531.50;2109881;84;27957;-59
2021/05/28 03:36:15;;;;;;;12.45;7.37;;;;;;;8.81;74.15;100522.20;2082449;85;29030;-59
2021/05/28 03:39:17;;;;;;;11.68;6.85;;;;;;;8.92;74.12;100525.34;2105619;84;31053;-59
2021/05/28 03:42:19;;;;;;;11.63;7.15;;;;;;;9.04;74.16;100531.98;2098471;83;33327;-59
2021/05/28 03:45:21;;;;;;;9.58;6.60;;;;;;;9.16;74.00;100534.64;2090655;84;29701;-59
2021/05/28 03:48:23;;;;;;;10.82;7.65;;;;;;;9.27;73.90;100542.23;2115852;84;27605;-59
2021/05/28 03:51:24;;;;;;;10.45;7.72;;;;;;;9.39;73.91;100539.53;2117102;83;28979;-59
2021/05/28 03:54:27;;;;;;;11.22;7.45;;;;;;;9.50;73.89;100537.27;2086552;84;31457;-59
2021/05/28 03:57:29;;;;;;;10.60;7.03;;;;;;;9.61;73.86;100538.63;2115046;84;33901;-59
2021/05/28 04:00:30;;;;;;;10.15;7.30;;;;;;;9.74;73.86;100546.56;2099725;84;29682;-59
2021/05/28 04:03:32;;;;;;;9.60;7.45;;;;;;;9.85;73.76;100546.08;2111118;84;27639;-59
2021/05/28 04:06:34;;;;;;;9.33;6.75;;;;;;;9.96;73.65;100545.17;2109055;83;29668;-60
2021/05/28 04:09:36;;;;;;;9.93;7.65;;;;;;;10.07;73.56;100535.80;2104013;84;32262;-59
2021/05/28 04:12:38;;;;;;;10.13;6.47;;;;;;;10.16;73.51;100540.27;2103897;83;34051;-59
2021/05/28 04:15:40;;;;;;;8.50;6.85;;;;;;;10.26;73.36;100535.87;2082514;85;30606;-59
2021/05/28 04:18:42;;;;;;;7.65;6.58;;;;;;;10.37;73.22;100536.25;2091643;84;27579;-59
2021/05/28 04:21:45;;;;;;;8.43;6.40;;;;;;;10.46;73.00;100545.70;2082575;85;29791;-59
2021/05/28 04:24:46;;;;;;;8.65;6.40;;;;;;;10.54;72.97;100544.02;2082602;85;31426;-59
2021/05/28 04:27:48;;;;;;;9.05;6.58;;;;;;;10.63;73.05;100540.91;2090735;83;33313;-59
2021/05/28 04:30:50;;;;;;;11.65;6.90;;;;;;;10.73;72.88;100538.22;2092575;83;31526;-59
2021/05/28 04:33:51;;;;;;;9.93;6.45;;;;;;;10.83;72.68;100541.80;2120242;83;27637;-60
2021/05/28 04:36:53;;;;;;;8.48;6.37;;;;;;;10.91;72.54;100534.28;2105027;83;29776;-60
2021/05/28 04:39:55;;;;;;;11.70;6.67;;;;;;;11.04;72.55;100540.79;2108560;83;32143;-60
2021/05/28 04:42:58;;;;;;;11.22;7.33;;;;;;;11.15;72.51;100539.39;2104816;83;33804;-59
2021/05/28 04:46:00;;;;;;;11.57;7.22;;;;;;;11.22;72.37;100543.53;2092846;82;30109;-59
2021/05/28 04:49:02;;;;;;;9.88;6.33;;;;;;;11.28;72.27;100543.70;2087622;83;27689;-59
2021/05/28 04:52:04;;;;;;;9.75;6.22;;;;;;;11.32;72.04;100547.98;2059819;86;28616;-59
2021/05/28 04:55:08;;;;;;;9.95;6.58;;;;;;;11.36;72.01;100549.09;2085163;83;31748;-59
2021/05/28 04:58:10;;;;;;;8.20;6.30;;;;;;;11.41;71.85;100554.22;2126927;83;32934;-60
2021/05/28 05:01:12;;;;;;;11.38;6.87;;;;;;;11.46;71.82;100551.30;2125671;82;30464;-59
2021/05/28 05:04:14;;;;;;;11.15;6.28;;;;;;;11.51;71.58;100554.64;2133291;82;27702;-59
2021/05/28 05:07:16;;;;;;;10.55;6.78;;;;;;;11.58;71.52;100553.86;2156897;82;29411;-60
2021/05/28 05:10:19;;;;;;;7.80;6.17;;;;;;;11.67;71.53;100556.06;2101536;82;31477;-60
2021/05/28 05:13:21;;;;;;;7.75;6.33;;;;;;;11.77;71.49;100558.70;2123578;82;33630;-60
2021/05/28 05:16:23;;;;;;;7.17;6.45;;;;;;;11.94;71.48;100556.97;2139619;82;29757;-59
2021/05/28 05:19:24;;;;;;;10.70;6.58;;;;;;;12.22;71.38;100559.14;2136678;82;27538;-60
2021/05/28 05:22:26;;;;;;;8.03;6.30;;;;;;;12.62;71.47;100561.52;2150459;82;28870;-59
2021/05/28 05:25:27;;;;;;;10.03;6.22;;;;;;;13.28;71.57;100556.98;2120331;83;31388;-60
2021/05/28 05:28:29;;;;;;;10.08;5.95;;;;;;;13.96;70.79;100557.12;2148280;82;33983;-60
2021/05/28 05:31:32;;;;;;;6.65;5.65;;;;;;;14.82;69.96;100558.69;2135161;83;29570;-60
2021/05/28 05:34:34;;;;;;;7.35;5.58;;;;;;;15.47;68.68;100557.20;2123275;83;27644;-60
2021/05/28 05:37:35;;;;;;;8.58;6.00;;;;;;;16.09;68.24;100556.67;2069703;86;28477;-73
2021/05/28 05:40:38;;;;;;;7.10;6.25;;;;;;;16.35;66.90;100557.19;2125313;83;30612;-74
2021/05/28 05:43:40;;;;;;;7.03;6.37;;;;;;;16.38;66.07;100555.13;2106568;84;32935;-61
2021/05/28 05:46:42;;;;;;;7.30;6.30;;;;;;;16.31;65.78;100553.81;2106658;84;29890;-59
2021/05/28 05:49:44;;;;;;;6.70;5.50;;;;;;;16.22;65.10;100559.87;2121194;83;27701;-60
2021/05/28 05:52:46;;;;;;;7.35;6.12;;;;;;;16.14;64.87;100562.22;2119815;82;29027;-59
2021/05/28 05:55:48;;;;;;;11.55;6.62;;;;;;;16.06;64.28;100562.28;2142550;82;31145;-59
2021/05/28 05:58:50;;;;;;;7.67;6.50;;;;;;;16.07;64.59;100564.02;2142645;83;33745;-60
2021/05/28 06:01:52;;;;;;;11.78;5.92;;;;;;;16.07;64.08;100566.72;2119930;83;29214;-60
2021/05/28 06:04:53;;;;;;;7.40;6.10;;;;;;;16.05;64.16;100571.86;2106859;83;27613;-60
2021/05/28 06:07:55;;;;;;;12.58;6.50;;;;;;;16.02;64.07;100576.11;2106809;84;29001;-60
2021/05/28 06:10:57;;;;;;;10.08;6.60;;;;;;;15.95;63.82;100571.62;2130315;83;31461;-60
2021/05/28 06:13:59;;;;;;;8.98;6.62;;;;;;;15.94;63.76;100576.64;2118115;83;32753;-60
2021/05/28 06:17:01;;;;;;;8.13;6.80;;;;;;;16.09;63.94;100582.81;2142908;82;29663;-61
2021/05/28 06:20:05;;;;;;;9.28;6.45;;;;;;;16.23;63.47;100585.44;2142667;83;27551;-66
2021/05/28 06:23:06;;;;;;;8.50;6.20;;;;;;;16.40;63.41;100581.58;2071648;85;29410;-60
2021/05/28 06:26:08;;;;;;;8.78;6.20;;;;;;;17.30;63.89;100594.66;2096553;83;31213;-60
2021/05/28 06:29:10;;;;;;;7.80;5.70;;;;;;;18.02;61.26;100587.08;2095337;84;33338;-61
2021/05/28 06:32:12;;;;;;;7.87;5.92;;;;;;;18.02;61.26;100587.08;2082726;85;29714;-62
2021/05/28 06:35:14;;;;;;;8.88;5.58;;;;;;;17.98;60.33;100590.13;2086500;84;27626;-60
2021/05/28 06:38:16;;;;;;;11.00;6.05;;;;;;;17.94;60.35;100590.82;2082629;85;29808;-60
2021/05/28 06:41:21;;;;;;;5.37;4.87;;;;;;;17.98;60.10;100591.00;2082639;85;31225;-61
2021/05/28 06:44:25;;;;;;;7.97;5.45;;;;;;;18.04;59.73;100585.59;2082475;85;33689;-60
2021/05/28 06:47:27;;;;;;;11.08;5.58;;;;;;;18.12;59.76;100593.98;2103620;84;29732;-61
2021/05/28 06:50:33;;;;;;;6.58;4.72;;;;;;;18.25;59.39;100595.78;2098068;83;27628;-60
2021/05/28 06:53:32;;;;;;;6.72;4.83;;;;;;;18.58;59.01;100581.41;2082514;84;29024;-60
2021/05/28 06:56:34;;;;;;;8.90;4.53;;;;;;;18.96;58.51;100580.71;2083251;84;31418;-60
2021/05/28 06:59:36;;;;;;;4.60;4.20;;;;;;;19.73;58.60;100580.33;2082465;85;32965;-60
2021/05/28 07:02:38;;;;;;;5.50;4.15;;;;;;;20.43;55.91;100582.64;2082676;85;29734;-61
2021/05/28 07:05:40;;;;;;;4.00;3.50;;;;;;;20.56;54.83;100579.20;2082751;85;27590;-60
2021/05/28 07:08:45;;;;;;;6.97;3.77;;;;;;;20.42;54.92;100580.39;2082676;85;29194;-60
2021/05/28 07:11:45;;;;;;;9.68;4.17;;;;;;;20.44;54.73;100587.94;2082330;85;31419;-60
2021/05/28 07:14:47;;;;;;;4.97;4.47;;;;;;;20.42;54.68;100593.16;2082559;85;32751;-60
2021/05/28 07:17:49;;;;;;;5.50;4.35;;;;;;;20.44;54.14;100593.37;2082482;85;30440;-60
2021/05/28 07:20:51;;;;;;;5.50;4.70;;;;;;;20.31;54.03;100594.08;2082767;85;27558;-60
2021/05/28 07:23:53;;;;;;;8.83;4.85;;;;;;;20.13;54.02;100586.98;2082735;85;28644;-60
2021/05/28 07:26:55;;;;;;;5.83;5.20;;;;;;;19.85;53.65;100601.06;2079179;85;30772;-60
2021/05/28 07:29:57;;;;;;;6.72;5.03;;;;;;;19.55;53.84;100605.33;2093802;84;34113;-60
2021/05/28 07:32:58;;;;;;;6.87;4.78;;;;;;;19.38;53.98;100606.73;2095142;83;28541;-61
2021/05/28 07:36:02;;;;;;;5.20;4.58;;;;;;;19.39;54.18;100600.80;2117971;83;27533;-61
2021/05/28 07:39:06;;;;;;;4.90;3.72;;;;;;;19.59;53.99;100601.89;2095969;84;29723;-60
2021/05/28 07:42:08;;;;;;;3.83;3.52;;;;;;;19.91;53.42;100602.44;2083876;85;31669;-60
2021/05/28 07:45:11;;;;;;;4.25;3.70;;;;;;;20.12;52.80;100597.02;2095778;84;33465;-60
2021/05/28 07:48:12;;;;;;;4.40;3.80;;;;;;;20.72;52.28;100590.95;2095656;84;30055;-60
2021/05/28 07:51:15;;;;;;;3.52;3.22;;;;;;;21.22;51.78;100579.79;2095934;84;27682;-60
2021/05/28 07:54:17;;;;;;;3.95;3.50;;;;;;;21.79;51.02;100577.86;2095820;84;29123;-61
2021/05/28 07:57:19;;;;;;;4.17;3.60;;;;;;;21.79;51.19;100575.98;2095713;84;31870;-59
2021/05/28 08:00:22;;;;;;;5.35;3.42;;;;;;;21.62;50.41;100579.41;2095664;84;33383;-60
2021/05/28 08:03:24;;;;;;;5.30;3.87;;;;;;;21.28;49.44;100587.42;2099942;84;30081;-60
2021/05/28 08:06:26;;;;;;;6.00;3.75;;;;;;;20.81;50.23;100591.19;2138198;82;27616;-60
2021/05/28 08:09:28;;;;;;;4.20;3.55;;;;;;;20.44;50.59;100594.73;2138871;83;29596;-60
2021/05/28 08:12:29;;;;;;;4.83;3.75;;;;;;;20.04;51.02;100584.08;2138913;82;30971;-60
2021/05/28 08:15:31;;;;;;;6.83;4.17;;;;;;;19.72;51.62;100588.99;2120593;83;33286;-60
2021/05/28 08:18:33;;;;;;;3.80;3.42;;;;;;;19.61;51.73;100579.49;2116681;83;28939;-59
2021/05/28 08:21:35;;;;;;;3.10;2.90;;;;;;;19.62;52.34;100585.30;2117459;83;27492;-60
2021/05/28 08:24:37;;;;;;;4.05;3.65;;;;;;;19.62;52.01;100588.02;2117887;83;29049;-59
2021/05/28 08:27:39;;;;;;;3.62;3.10;;;;;;;19.57;52.17;100588.92;2117814;84;31503;-59
2021/05/28 08:30:41;;;;;;;2.58;2.33;;;;;;;19.84;52.31;100587.58;2102093;84;33028;-60
2021/05/28 08:33:45;;;;;;;3.20;2.90;;;;;;;20.28;51.76;100580.73;2066810;86;29710;-60
2021/05/28 08:36:47;;;;;;;3.08;2.87;;;;;;;20.56;51.54;100579.69;2075813;85;27690;-60
2021/05/28 08:39:49;;;;;;;3.25;2.98;;;;;;;20.67;51.09;100577.38;2097933;84;29814;-60
2021/05/28 08:42:52;;;;;;;5.22;3.10;;;;;;;20.98;51.11;100578.77;2043027;87;30893;-60
2021/05/28 08:45:55;;;;;;;3.35;2.80;;;;;;;21.50;50.68;100580.02;2075555;85;33379;-60
2021/05/28 08:48:57;;;;;;;3.15;2.87;;;;;;;22.15;50.59;100578.14;2097999;84;30072;-60
2021/05/28 08:52:00;;;;;;;2.83;2.62;;;;;;;22.52;49.29;100576.01;2043032;87;27589;-61
2021/05/28 08:55:04;;;;;;;4.15;2.98;;;;;;;22.50;48.00;100573.95;2077713;85;29870;-60
2021/05/28 08:58:09;;;;;;;2.57;2.03;;;;;;;22.25;48.77;100578.14;2078515;85;30996;-60
2021/05/28 09:01:11;;;;;;;2.95;2.50;;;;;;;21.88;47.74;100589.26;2104219;84;33621;-60
2021/05/28 09:04:13;;;;;;;4.50;2.67;;;;;;;21.31;48.58;100604.86;2104674;84;30444;-60
2021/05/28 09:07:23;;;;;;;3.58;2.90;;;;;;;20.72;49.17;100592.83;2104610;84;27605;-60
2021/05/28 09:10:38;;;;;;;4.72;2.92;;;;;;;20.12;49.77;100586.62;2104612;84;29715;-60
2021/05/28 09:13:56;;;;;;;6.00;3.10;;;;;;;19.56;50.65;100589.91;2080573;85;31944;-60
2021/05/28 09:16:56;;;;;;;3.87;3.30;;;;;;;19.16;51.49;100588.63;2080118;85;33879;-60
2021/05/28 09:20:00;;;;;;;4.97;3.77;;;;;;;18.89;52.27;100586.25;2046477;86;29570;-60
2021/05/28 09:23:18;;;;;;;3.70;3.35;;;;;;;18.82;53.10;100579.09;2034707;87;27669;-59
2021/05/28 09:26:38;;;;;;;5.67;4.30;;;;;;;18.85;53.58;100579.33;2079784;85;27719;-59
2021/05/28 09:30:03;;;;;;;4.78;3.95;;;;;;;18.97;53.93;100579.25;2080256;84;31188;-60
2021/05/28 09:33:05;;;;;;;4.72;4.15;;;;;;;19.14;53.95;100578.38;2095061;84;33436;-60
2021/05/28 09:36:16;;;;;;;5.08;4.05;;;;;;;19.43;54.49;100570.55;2078748;85;30426;-59
2021/05/28 09:39:18;;;;;;;4.25;3.85;;;;;;;19.86;55.09;100573.37;2083653;84;27626;-59
2021/05/28 09:42:20;;;;;;;4.70;3.58;;;;;;;20.08;53.57;100575.15;2078440;84;29566;-59
2021/05/28 09:45:36;;;;;;;3.27;2.60;;;;;;;20.07;53.64;100573.42;2074249;84;31361;-60
2021/05/28 09:48:37;;;;;;;2.62;2.42;;;;;;;20.06;52.90;100574.41;2078726;85;33597;-60
2021/05/28 09:51:40;;;;;;;3.10;2.80;;;;;;;20.09;52.69;100574.16;2078642;85;29762;-59
2021/05/28 09:55:06;;;;;;;3.47;2.92;;;;;;;20.09;52.10;100575.52;2073380;85;27845;-59
2021/05/28 09:58:10;;;;;;;4.03;3.33;;;;;;;20.16;52.58;100568.56;2088108;84;27658;-60
2021/05/28 10:01:11;;;;;;;3.60;3.17;;;;;;;20.44;53.47;100572.97;2042891;86;32122;-60
2021/05/28 10:04:12;;;;;;;3.83;2.87;;;;;;;20.44;52.56;100578.89;2094845;85;34432;-60
2021/05/28 10:07:14;;;;;;;3.87;2.75;;;;;;;20.24;51.86;100573.34;2078163;85;29141;-59
2021/05/28 10:10:19;;;;;;;4.90;3.50;;;;;;;20.07;52.17;100576.14;2078500;84;27716;-59
2021/05/28 10:13:23;;;;;;;3.52;3.22;;;;;;;19.93;52.14;100579.17;2094685;84;28617;-60
2021/05/28 10:16:25;;;;;;;4.80;3.47;;;;;;;19.88;52.14;100581.78;2078969;85;30980;-60
2021/05/28 10:19:26;;;;;;;5.17;3.30;;;;;;;19.84;51.87;100580.31;2043014;86;33326;-60
2021/05/28 10:22:28;;;;;;;3.00;2.67;;;;;;;19.96;51.86;100589.28;2095113;84;29693;-60
2021/05/28 10:25:29;;;;;;;3.27;2.87;;;;;;;20.03;51.21;100577.39;2078926;85;28008;-60
2021/05/28 10:28:33;;;;;;;3.60;2.58;;;;;;;20.12;50.82;100568.94;2043260;86;29001;-60
2021/05/28 10:31:58;;;;;;;2.58;2.17;;;;;;;20.21;51.03;100557.28;2106543;84;30997;-60
2021/05/28 10:35:10;;;;;;;2.77;1.82;;;;;;;20.46;50.84;100553.77;2112788;84;34156;-60
2021/05/28 10:38:37;;;;;;;4.08;2.40;;;;;;;20.80;51.18;100553.55;2110494;84;30086;-60
2021/05/28 10:41:45;;;;;;;1.98;1.87;;;;;;;21.12;50.09;100553.03;2111652;84;27699;-61
2021/05/28 10:44:46;;;;;;;3.20;2.02;;;;;;;21.38;49.43;100554.74;2111293;84;28651;-60
2021/05/28 10:47:47;;;;;;;2.60;1.90;;;;;;;21.51;48.31;100559.42;2110455;83;31719;-61
2021/05/28 10:50:49;;;;;;;2.83;2.10;;;;;;;21.46;47.48;100557.61;2112186;84;33123;-60
2021/05/28 10:53:56;;;;;;;2.55;1.65;;;;;;;21.44;47.33;100560.13;2109615;83;29420;-61
2021/05/28 10:57:17;;;;;;;7.03;1.80;;;;;;;21.58;48.17;100556.14;2090925;85;27565;-60
2021/05/28 11:00:30;;;;;;;4.35;1.50;;;;;;;21.84;48.25;100558.69;2042700;87;28636;-60
2021/05/28 11:03:47;;;;;;;2.12;1.57;;;;;;;22.11;47.08;100555.72;2008638;88;31940;-60
2021/05/28 11:07:06;;;;;;;2.65;1.50;;;;;;;22.29;46.79;100543.58;2008771;88;34133;-61
2021/05/28 11:10:25;;;;;;;3.50;2.00;;;;;;;22.49;46.05;100547.66;2043429;87;28886;-61
2021/05/28 11:13:27;;;;;;;5.10;1.80;;;;;;;22.63;46.63;100546.30;2008066;88;37098;-61
2021/05/28 11:16:29;;;;;;;1.40;1.30;;;;;;;22.73;45.09;100539.44;2008246;88;29067;-61
2021/05/28 11:19:40;;;;;;;2.22;1.70;;;;;;;22.68;45.36;100540.39;2021478;87;32358;-60
2021/05/28 11:22:43;;;;;;;2.17;1.98;;;;;;;22.63;44.27;100538.63;2008669;88;33299;-61
2021/05/28 11:25:53;;;;;;;1.87;1.60;;;;;;;22.49;45.03;100546.78;2008787;88;28762;-61
2021/05/28 11:28:57;;;;;;;1.85;1.75;;;;;;;22.49;45.00;100546.30;2043467;87;27997;-58
2021/05/28 11:32:00;;;;;;;2.25;1.40;;;;;;;22.52;44.48;100542.39;1997858;88;28849;-58
2021/05/28 11:35:19;;;;;;;3.60;1.50;;;;;;;22.41;43.69;100542.03;2009939;88;31034;-59
2021/05/28 11:38:31;;;;;;;1.95;1.70;;;;;;;22.44;43.68;100533.06;2008417;87;33632;-59
2021/05/28 11:41:49;;;;;;;2.45;1.42;;;;;;;22.41;43.95;100541.55;2010016;88;29715;-60
2021/05/28 11:44:54;;;;;;;1.70;1.60;;;;;;;22.35;43.24;100533.05;2011241;88;27712;-60
2021/05/28 11:47:56;;;;;;;5.70;2.30;;;;;;;22.11;44.12;100543.44;2010990;88;29086;-60
2021/05/28 11:51:00;;;;;;;4.92;1.60;;;;;;;21.97;44.57;100541.16;2011112;88;30991;-60
2021/05/28 11:54:26;;;;;;;3.35;1.55;;;;;;;21.82;44.23;100551.67;2016894;87;33563;-60
2021/05/28 11:57:27;;;;;;;2.65;1.80;;;;;;;21.60;44.45;100548.66;2023153;87;30453;-60
2021/05/28 12:00:31;;;;;;;3.12;2.25;;;;;;;21.50;45.34;100545.95;2011228;88;27628;-60
2021/05/28 12:03:34;;;;;;;4.40;2.33;;;;;;;21.47;46.23;100542.13;2010398;88;29338;-60
2021/05/28 12:06:35;;;;;;;2.92;1.60;;;;;;;21.39;45.52;100541.48;2010982;87;31456;-61
2021/05/28 12:10:02;;;;;;;3.83;2.20;;;;;;;21.19;44.71;100540.07;2010767;88;33614;-60
2021/05/28 12:13:15;;;;;;;2.45;2.10;;;;;;;20.99;45.37;100537.80;2010806;88;30472;-60
2021/05/28 12:16:18;;;;;;;3.05;2.58;;;;;;;20.83;45.37;100527.41;2065389;85;27639;-59
2021/05/28 12:19:19;;;;;;;3.72;2.45;;;;;;;20.73;45.79;100543.67;2063925;86;29011;-60
2021/05/28 12:22:21;;;;;;;3.08;1.60;;;;;;;20.67;46.28;100542.88;2062993;86;31063;-59
2021/05/28 12:25:23;;;;;;;2.83;2.10;;;;;;;20.61;45.68;100544.77;2063458;85;33322;-60
2021/05/28 12:28:37;;;;;;;2.83;2.60;;;;;;;20.51;45.24;100556.11;2078484;84;30308;-59
2021/05/28 12:31:41;;;;;;;3.02;2.65;;;;;;;20.34;45.39;100557.09;2078150;84;27713;-60
2021/05/28 12:34:44;;;;;;;2.58;2.30;;;;;;;20.14;45.75;100556.95;2075416;84;29800;-61
2021/05/28 12:38:09;;;;;;;1.72;1.62;;;;;;;19.93;45.73;100551.98;2063327;86;32363;-61
2021/05/28 12:41:15;;;;;;;1.67;1.57;;;;;;;19.81;45.85;100555.21;2065707;85;33708;-59
2021/05/28 12:44:23;;;;;;;1.57;1.20;;;;;;;19.80;45.87;100553.00;2062792;86;30227;-61
2021/05/28 12:47:25;;;;;;;1.85;1.30;;;;;;;19.90;45.93;100553.12;2062395;86;27584;-61
2021/05/28 12:50:33;;;;;;;1.80;1.47;;;;;;;20.03;45.85;100554.27;2063132;86;28953;-58
2021/05/28 12:53:40;;;;;;;2.65;1.80;;;;;;;20.27;45.71;100555.37;2063051;86;30973;-59
2021/05/28 12:56:42;;;;;;;1.98;1.32;;;;;;;20.49;45.73;100552.14;2062990;86;33485;-60
2021/05/28 12:59:44;;;;;;;1.82;1.65;;;;;;;20.75;45.78;100545.80;2067521;86;30386;-60
2021/05/28 13:02:45;;;;;;;1.40;1.30;;;;;;;21.07;45.81;100546.64;2074668;85;27747;-60
2021/05/28 13:05:46;;;;;;;1.92;1.82;;;;;;;21.28;44.70;100545.18;2075231;85;28991;-60
2021/05/28 13:08:52;;;;;;;1.30;1.20;;;;;;;21.34;44.28;100545.12;2075345;85;31443;-60
2021/05/28 13:12:02;;;;;;;1.70;1.20;;;;;;;21.26;43.82;100539.00;2069956;85;33695;-60
2021/05/28 13:15:05;;;;;;;2.52;1.72;;;;;;;21.16;43.65;100545.79;2068736;85;30587;-60
2021/05/28 13:18:07;;;;;;;2.42;1.30;;;;;;;20.99;43.81;100541.88;2069804;85;27588;-60
2021/05/28 13:21:25;;;;;;;1.30;1.20;;;;;;;20.76;43.18;100548.87;2069792;85;28994;-60
2021/05/28 13:24:43;;;;;;;1.35;1.20;;;;;;;20.52;44.32;100557.33;2070117;86;32073;-60
2021/05/28 13:27:49;;;;;;;3.62;1.92;;;;;;;20.40;44.17;100551.60;2070235;86;34166;-61
2021/05/28 13:30:54;;;;;;;2.45;1.30;;;;;;;20.44;45.05;100558.00;2058010;84;30180;-60
2021/05/28 13:33:56;;;;;;;1.47;1.10;;;;;;;20.56;44.49;100560.62;2069567;85;27663;-60
2021/05/28 13:36:58;;;;;;;1.90;1.25;;;;;;;20.58;43.71;100566.33;2078893;84;28916;-60
2021/05/28 13:40:10;;;;;;;1.40;1.10;;;;;;;20.54;44.19;100566.70;2099467;84;27935;-60
2021/05/28 13:43:21;;;;;;;1.50;1.40;;;;;;;20.47;44.55;100563.66;2044599;86;34386;-60
2021/05/28 13:46:24;;;;;;;1.12;1.02;;;;;;;20.37;44.61;100566.83;2077965;85;29567;-60
2021/05/28 13:49:26;;;;;;;2.72;1.07;;;;;;;20.27;44.50;100574.92;2095696;84;27647;-61
2021/05/28 13:52:27;;;;;;;2.50;1.42;;;;;;;20.15;44.38;100568.68;2095781;84;28597;-60
2021/05/28 13:55:29;;;;;;;0.82;0.82;;;;;;;20.10;44.58;100565.52;2067598;86;31393;-61
2021/05/28 13:58:30;;;;;;;1.20;1.10;;;;;;;19.99;44.33;100565.07;2077983;84;34063;-60
2021/05/28 14:01:34;;;;;;;1.05;0.95;;;;;;;19.90;44.62;100576.23;2079363;85;30451;-60
2021/05/28 14:04:36;;;;;;;3.70;1.57;;;;;;;19.72;44.34;100567.73;2033682;85;27656;-60
2021/05/28 14:07:38;;;;;;;1.12;1.00;;;;;;;19.49;44.63;100573.73;2095558;84;29119;-61
2021/05/28 14:10:39;;;;;;;1.20;1.10;;;;;;;19.24;44.64;100576.62;2067275;85;30819;-61
2021/05/28 14:13:41;;;;;;;2.22;0.95;;;;;;;19.03;45.20;100574.32;2075384;85;33701;-60
2021/05/28 14:16:43;;;;;;;2.95;0.85;;;;;;;18.97;45.37;100581.97;2096275;84;30582;-61
2021/05/28 14:19:44;;;;;;;2.25;1.20;;;;;;;18.92;45.42;100576.00;2067389;86;27681;-60
2021/05/28 14:22:46;;;;;;;2.42;0.93;;;;;;;18.89;45.39;100579.47;2074543;85;29012;-60